Time;durP1;ratioP1;P1;durP2;ratioP2;P2;SDS_P1;SDS_P2;PMS_P1;PMS_P2;Temp;Humidity;BMP_temperature;BMP_pressure;BME280_temperature;BME280_humidity;BME280_pressure;Samples;Min_cycle;Max_cycle;Signal;HPM_P1;HPM_P2
2023/06/01 04:56:18;;;;;;;15.30;6.13;;;13.60;92.30;;;;;;5071740;28;20357;-83
2023/06/01 04:58:46;;;;;;;18.48;6.43;;;13.50;92.90;;;;;;5072875;28;20059;-83
2023/06/01 05:01:15;;;;;;;13.57;6.20;;;13.50;92.90;;;;;;5071756;28;20032;-83
2023/06/01 05:03:42;;;;;;;13.27;5.95;;;13.50;92.50;;;;;;5070686;28;20028;-82
2023/06/01 05:06:08;;;;;;;11.90;5.63;;;13.50;92.90;;;;;;5071215;28;20021;-83
2023/06/01 05:08:34;;;;;;;13.23;6.07;;;13.70;92.50;;;;;;5070793;28;20036;-84
2023/06/01 05:10:59;;;;;;;15.60;5.97;;;13.90;92.30;;;;;;5071694;28;20384;-84
2023/06/01 05:13:25;;;;;;;15.57;6.50;;;14.00;91.70;;;;;;5072297;28;20073;-84
2023/06/01 05:15:51;;;;;;;12.60;5.55;;;14.00;91.40;;;;;;5071398;28;20036;-79
2023/06/01 05:18:16;;;;;;;14.60;6.10;;;14.00;91.50;;;;;;5070342;28;20493;-84
2023/06/01 05:20:42;;;;;;;10.55;5.93;;;14.10;91.30;;;;;;5071702;28;20029;-85
2023/06/01 05:23:07;;;;;;;14.02;5.85;;;14.00;91.30;;;;;;5070447;28;20021;-83
2023/06/01 05:25:33;;;;;;;12.38;5.90;;;14.20;91.30;;;;;;5070725;28;20079;-83
2023/06/01 05:27:59;;;;;;;15.48;6.70;;;14.30;91.20;;;;;;5070830;28;20024;-84
2023/06/01 05:30:25;;;;;;;15.25;6.72;;;14.50;90.80;;;;;;5070677;28;20036;-83
2023/06/01 05:32:50;;;;;;;13.43;5.82;;;14.60;90.70;;;;;;5070314;28;20029;-83
2023/06/01 05:35:16;;;;;;;14.43;6.50;;;14.70;90.40;;;;;;5069450;28;20043;-83
2023/06/01 05:37:42;;;;;;;12.02;5.55;;;14.80;90.20;;;;;;5070779;28;20071;-83
2023/06/01 05:40:08;;;;;;;13.73;6.32;;;14.90;90.20;;;;;;5068779;28;20033;-83
2023/06/01 05:42:34;;;;;;;16.13;6.28;;;15.00;89.40;;;;;;5068816;28;20116;-82
2023/06/01 05:45:00;;;;;;;12.95;6.18;;;15.10;89.30;;;;;;5069939;28;20117;-82
2023/06/01 05:47:25;;;;;;;13.05;6.10;;;15.00;89.00;;;;;;5070173;28;20018;-82
2023/06/01 05:49:51;;;;;;;15.57;7.20;;;14.90;88.90;;;;;;5069773;28;20040;-83
2023/06/01 05:52:17;;;;;;;11.30;5.72;;;14.80;88.70;;;;;;5071227;28;20481;-82
2023/06/01 05:54:42;;;;;;;14.82;6.05;;;14.70;89.30;;;;;;5071274;28;20073;-84
2023/06/01 05:57:08;;;;;;;15.80;6.47;;;14.70;89.10;;;;;;5071959;28;20046;-82
2023/06/01 05:59:34;;;;;;;14.93;6.35;;;14.50;89.70;;;;;;5068349;28;20037;-87
2023/06/01 06:01:59;;;;;;;11.88;6.35;;;14.40;90.10;;;;;;5067976;28;20028;-83
2023/06/01 06:04:25;;;;;;;9.63;5.28;;;14.40;90.20;;;;;;5069294;28;20480;-84
2023/06/01 06:06:51;;;;;;;15.15;6.00;;;14.50;90.30;;;;;;5059609;28;20029;-87
2023/06/01 06:09:17;;;;;;;13.50;6.10;;;14.70;90.20;;;;;;5055427;28;20098;-82
2023/06/01 06:11:43;;;;;;;12.05;6.15;;;14.70;89.50;;;;;;5053888;28;20025;-84
2023/06/01 06:14:11;;;;;;;18.08;7.40;;;14.70;90.00;;;;;;5055538;28;20025;-84
2023/06/01 06:16:37;;;;;;;16.80;6.00;;;14.60;88.90;;;;;;5055375;28;20033;-81
2023/06/01 06:19:02;;;;;;;12.45;5.68;;;14.50;89.60;;;;;;5054694;28;20507;-82
2023/06/01 06:21:28;;;;;;;14.75;6.80;;;14.60;89.90;;;;;;5054805;28;20377;-81
2023/06/01 06:23:58;;;;;;;15.48;6.60;;;14.60;89.80;;;;;;5055346;28;20029;-86
2023/06/01 06:26:26;;;;;;;11.50;5.65;;;14.60;89.90;;;;;;5056901;28;20405;-82
2023/06/01 06:28:51;;;;;;;17.42;6.30;;;14.70;90.10;;;;;;5056122;28;20445;-85
2023/06/01 06:31:17;;;;;;;11.80;6.10;;;14.80;90.10;;;;;;5055718;28;20074;-83
2023/06/01 06:33:42;;;;;;;11.95;5.75;;;14.70;89.80;;;;;;5056319;28;20029;-85
2023/06/01 06:36:08;;;;;;;12.45;5.57;;;14.80;89.60;;;;;;5055862;28;20073;-86
2023/06/01 06:38:34;;;;;;;13.25;5.93;;;15.00;89.00;;;;;;5038288;28;20033;-86
2023/06/01 06:40:59;;;;;;;12.02;5.55;;;15.10;88.80;;;;;;5056573;28;20025;-85
2023/06/01 06:43:25;;;;;;;13.55;5.60;;;15.20;88.00;;;;;;5057711;28;20102;-86
2023/06/01 06:45:51;;;;;;;13.25;5.43;;;15.40;87.60;;;;;;5057097;28;20378;-86
2023/06/01 06:48:16;;;;;;;17.17;7.22;;;15.50;86.60;;;;;;5060564;28;20473;-85
2023/06/01 06:50:44;;;;;;;13.70;6.15;;;15.40;86.20;;;;;;5056262;28;20024;-85
2023/06/01 06:53:10;;;;;;;12.73;5.63;;;15.40;86.60;;;;;;5054445;28;20461;-85
2023/06/01 06:55:36;;;;;;;11.27;5.00;;;15.50;86.80;;;;;;5053516;28;20084;-84
2023/06/01 06:58:02;;;;;;;11.77;5.90;;;15.50;86.60;;;;;;5055787;28;20053;-85
2023/06/01 07:00:27;;;;;;;15.73;5.97;;;15.70;86.30;;;;;;5055004;28;20033;-84
2023/06/01 07:02:55;;;;;;;10.05;5.03;;;15.70;85.60;;;;;;5053819;28;20079;-85
2023/06/01 07:05:20;;;;;;;11.73;5.68;;;15.70;85.90;;;;;;5055163;28;20036;-85
2023/06/01 07:07:46;;;;;;;13.20;5.07;;;15.90;85.70;;;;;;5054160;28;20362;-84
2023/06/01 07:10:12;;;;;;;10.27;4.65;;;16.00;85.30;;;;;;5055280;28;20029;-84
2023/06/01 07:12:38;;;;;;;11.43;5.00;;;16.10;85.00;;;;;;5055284;28;20028;-82
2023/06/01 07:15:05;;;;;;;14.05;5.18;;;16.10;84.30;;;;;;5055151;28;20033;-85
2023/06/01 07:17:30;;;;;;;11.60;5.25;;;16.00;84.20;;;;;;5053961;28;20029;-85
2023/06/01 07:19:56;;;;;;;13.13;5.47;;;16.10;84.30;;;;;;5053804;28;20032;-84
2023/06/01 07:22:22;;;;;;;12.82;5.30;;;16.10;84.80;;;;;;5054981;28;20029;-85
2023/06/01 07:24:48;;;;;;;14.40;5.50;;;16.00;85.20;;;;;;5054838;28;20060;-84
2023/06/01 07:27:14;;;;;;;12.57;5.10;;;16.00;84.80;;;;;;5055516;28;20067;-85
2023/06/01 07:29:41;;;;;;;10.65;4.55;;;16.20;84.50;;;;;;5055101;28;20031;-85
2023/06/01 07:32:07;;;;;;;10.35;4.65;;;16.30;84.10;;;;;;5054326;28;20064;-84
2023/06/01 07:34:35;;;;;;;12.15;5.28;;;16.40;83.10;;;;;;5054742;28;20423;-85
2023/06/01 07:37:01;;;;;;;10.68;5.63;;;16.40;83.30;;;;;;5054659;28;20036;-85
2023/06/01 07:39:27;;;;;;;11.15;4.65;;;16.40;83.30;;;;;;5054899;28;20361;-84
2023/06/01 07:41:55;;;;;;;11.00;4.75;;;16.30;84.50;;;;;;5036418;28;20108;-84
2023/06/01 07:44:21;;;;;;;13.48;4.93;;;16.30;84.10;;;;;;5053361;28;20032;-84
2023/06/01 07:46:47;;;;;;;11.88;5.38;;;16.30;83.40;;;;;;5054039;28;20500;-84
2023/06/01 07:49:13;;;;;;;12.70;5.72;;;16.30;84.00;;;;;;5054271;28;20025;-84
2023/06/01 07:51:40;;;;;;;14.40;6.55;;;16.50;83.90;;;;;;5054491;28;20032;-85
2023/06/01 07:54:07;;;;;;;10.02;5.18;;;16.50;83.50;;;;;;5054057;28;20056;-85
2023/06/01 07:56:34;;;;;;;12.88;5.68;;;16.50;83.20;;;;;;5054189;28;20029;-85
2023/06/01 07:59:00;;;;;;;12.63;5.53;;;16.40;83.40;;;;;;5054263;28;20029;-85
2023/06/01 08:01:26;;;;;;;13.25;5.82;;;16.60;83.60;;;;;;5054011;28;20174;-86
2023/06/01 08:03:52;;;;;;;14.75;5.90;;;16.80;83.30;;;;;;5054062;28;20032;-85
2023/06/01 08:06:22;;;;;;;12.10;5.07;;;16.90;83.20;;;;;;5054219;28;20036;-86
2023/06/01 08:08:49;;;;;;;9.82;4.80;;;17.10;83.90;;;;;;5052977;28;20020;-86
2023/06/01 08:11:17;;;;;;;12.20;5.72;;;17.40;83.20;;;;;;5052977;28;20040;-87
2023/06/01 08:13:45;;;;;;;11.80;4.90;;;17.70;82.00;;;;;;5053895;28;20033;-86
2023/06/01 08:16:12;;;;;;;13.18;5.40;;;17.80;80.00;;;;;;5053875;28;20025;-85
2023/06/01 08:18:38;;;;;;;9.93;5.10;;;17.90;79.50;;;;;;5053811;28;20120;-86
2023/06/01 08:21:04;;;;;;;9.07;4.45;;;17.90;79.40;;;;;;5052649;28;20117;-85
2023/06/01 08:23:30;;;;;;;70.32;17.13;;;17.90;79.00;;;;;;5053816;28;20036;-87
2023/06/01 08:25:56;;;;;;;10.45;4.97;;;17.80;80.00;;;;;;5052461;28;20029;-86
2023/06/01 08:28:22;;;;;;;9.95;5.00;;;17.70;80.00;;;;;;5054846;28;20021;-86
2023/06/01 08:30:48;;;;;;;8.90;4.43;;;17.70;79.50;;;;;;5053603;28;20025;-87
2023/06/01 08:33:15;;;;;;;9.70;4.45;;;17.80;79.80;;;;;;5053581;28;20071;-87
2023/06/01 08:35:40;;;;;;;13.02;5.28;;;18.10;81.20;;;;;;5053422;28;20050;-83
2023/06/01 08:38:06;;;;;;;10.75;4.50;;;18.20;78.10;;;;;;5053675;28;20021;-86
2023/06/01 08:40:32;;;;;;;11.75;4.97;;;18.30;77.80;;;;;;5053748;28;20068;-86
2023/06/01 08:43:32;;;;;;;11.77;5.07;;;18.30;78.30;;;;;;5076271;23;20042;-83
2023/06/01 08:46:07;;;;;;;10.43;4.95;;;18.30;76.60;;;;;;5030518;28;20034;-86
2023/06/01 08:48:34;;;;;;;10.45;5.50;;;18.20;76.40;;;;;;5031081;28;20010;-85
2023/06/01 08:51:00;;;;;;;9.02;4.60;;;18.20;77.70;;;;;;5030287;28;20037;-87
2023/06/01 08:53:28;;;;;;;8.75;4.43;;;18.20;78.00;;;;;;5031294;28;20084;-86
2023/06/01 08:55:58;;;;;;;10.82;4.95;;;18.40;77.40;;;;;;5030831;28;20098;-87
2023/06/01 08:58:32;;;;;;;11.77;5.10;;;18.50;77.10;;;;;;5033065;28;20040;-86
2023/06/01 09:01:10;;;;;;;8.73;5.60;;;18.60;77.10;;;;;;5016095;28;20470;-86
2023/06/01 09:03:36;;;;;;;10.57;5.30;;;18.50;74.90;;;;;;5026954;28;20485;-86
2023/06/01 09:06:03;;;;;;;12.32;4.85;;;18.70;76.70;;;;;;5013327;28;20037;-83
2023/06/01 09:08:29;;;;;;;9.80;4.55;;;18.70;76.80;;;;;;5013688;28;20044;-86
2023/06/01 09:10:55;;;;;;;11.75;5.05;;;18.80;76.00;;;;;;5013999;28;20441;-85
2023/06/01 09:13:37;;;;;;;9.82;4.53;;;18.80;75.90;;;;;;5013678;28;20065;-84
2023/06/01 09:16:03;;;;;;;8.40;4.72;;;18.80;75.90;;;;;;5013551;28;20069;-84
2023/06/01 09:18:28;;;;;;;7.97;4.22;;;18.80;76.50;;;;;;5013219;28;20066;-85
2023/06/01 09:21:09;;;;;;;7.40;3.95;;;18.90;76.30;;;;;;5013324;28;20068;-84
2023/06/01 09:23:34;;;;;;;8.73;4.38;;;19.10;76.50;;;;;;5013134;28;20034;-85
2023/06/01 09:26:11;;;;;;;9.73;4.65;;;19.40;76.70;;;;;;5013329;28;20030;-85
2023/06/01 09:28:57;;;;;;;9.75;3.95;;;19.60;74.40;;;;;;5013469;28;20026;-86
2023/06/01 09:31:41;;;;;;;7.28;4.00;;;19.60;72.20;;;;;;5013165;28;20061;-85
2023/06/01 09:34:08;;;;;;;5.32;2.88;;;19.60;73.30;;;;;;5013324;28;20417;-84
2023/06/01 09:36:34;;;;;;;8.05;3.53;;;19.70;72.40;;;;;;5013479;28;20062;-86
2023/06/01 09:39:05;;;;;;;7.22;3.78;;;19.90;72.70;;;;;;5012480;28;20033;-84
2023/06/01 09:41:55;;;;;;;7.35;3.28;;;19.90;72.10;;;;;;4997101;28;20034;-85
2023/06/01 09:44:26;;;;;;;7.57;3.35;;;20.00;72.60;;;;;;5017228;28;20046;-85
2023/06/01 09:47:02;;;;;;;8.02;3.60;;;20.20;72.20;;;;;;5012938;28;20030;-82
2023/06/01 09:49:30;;;;;;;8.55;3.80;;;20.40;71.80;;;;;;5016934;28;20168;-84
2023/06/01 09:52:04;;;;;;;7.72;2.78;;;20.40;72.10;;;;;;4997188;28;20037;-85
2023/06/01 09:54:41;;;;;;;7.22;2.78;;;20.50;70.90;;;;;;4997196;28;20041;-85
2023/06/01 09:57:08;;;;;;;8.45;3.50;;;20.60;72.70;;;;;;4997283;28;20026;-84
2023/06/01 09:59:44;;;;;;;7.05;2.95;;;20.80;71.70;;;;;;4997004;28;20183;-82
2023/06/01 10:02:18;;;;;;;8.50;3.47;;;20.60;69.00;;;;;;4997173;28;20023;-84
2023/06/01 10:04:53;;;;;;;6.07;3.60;;;20.50;69.90;;;;;;4996099;28;20038;-86
2023/06/01 10:07:20;;;;;;;5.80;3.30;;;20.50;69.60;;;;;;4997761;28;20038;-85
2023/06/01 10:09:50;;;;;;;7.28;3.42;;;20.50;70.10;;;;;;4997238;28;20173;-86
2023/06/01 10:12:16;;;;;;;8.45;3.55;;;20.50;69.50;;;;;;4997041;28;20034;-85
2023/06/01 10:14:42;;;;;;;4.63;3.08;;;20.60;69.10;;;;;;4997650;28;20536;-85
2023/06/01 10:17:11;;;;;;;6.47;3.50;;;20.60;70.10;;;;;;4996064;28;20042;-86
2023/06/01 10:19:38;;;;;;;6.65;3.50;;;20.80;68.50;;;;;;4996813;28;20046;-86
2023/06/01 10:22:05;;;;;;;7.63;3.03;;;20.80;69.60;;;;;;4998596;28;20529;-84
2023/06/01 10:24:32;;;;;;;8.30;3.47;;;20.90;69.40;;;;;;4998294;28;20035;-87
2023/06/01 10:27:10;;;;;;;5.20;3.22;;;20.90;67.90;;;;;;4997434;28;20109;-88
2023/06/01 10:29:36;;;;;;;7.13;3.25;;;20.70;69.20;;;;;;4997761;28;20027;-88
2023/06/01 10:32:02;;;;;;;11.57;3.80;;;20.90;69.50;;;;;;4997047;28;20034;-87
2023/06/01 10:34:39;;;;;;;8.73;3.42;;;21.00;68.10;;;;;;4995456;28;20081;-86
2023/06/01 10:37:05;;;;;;;8.65;3.60;;;21.00;69.90;;;;;;4997909;28;20026;-87
2023/06/01 10:39:34;;;;;;;6.93;3.45;;;21.20;69.40;;;;;;5001792;28;20025;-88
2023/06/01 10:42:22;;;;;;;7.90;2.45;;;21.40;68.90;;;;;;5017219;28;20037;-89
2023/06/01 10:44:48;;;;;;;5.55;2.72;;;21.60;68.90;;;;;;5016262;28;20041;-88
2023/06/01 10:47:20;;;;;;;8.43;3.25;;;21.90;67.20;;;;;;5016278;28;20462;-87
2023/06/01 10:49:49;;;;;;;9.33;3.60;;;22.10;66.90;;;;;;5017297;28;20026;-86
2023/06/01 10:52:27;;;;;;;7.10;3.50;;;22.40;66.40;;;;;;5019987;28;20366;-88
2023/06/01 10:55:16;;;;;;;5.80;2.97;;;22.70;65.60;;;;;;5026110;28;20040;-87
2023/06/01 10:57:45;;;;;;;10.25;3.95;;;22.80;65.20;;;;;;5019209;28;20042;-88
2023/06/01 11:00:15;;;;;;;5.75;2.75;;;22.60;63.60;;;;;;5018090;28;20034;-81
2023/06/01 11:03:01;;;;;;;8.35;3.35;;;22.30;66.00;;;;;;5018024;28;20060;-88
2023/06/01 11:05:40;;;;;;;5.80;3.08;;;22.40;65.40;;;;;;4998565;28;20070;-89
2023/06/01 11:08:21;;;;;;;8.68;3.22;;;22.50;65.40;;;;;;5016681;28;20034;-87
2023/06/01 11:10:54;;;;;;;9.68;3.42;;;22.70;66.40;;;;;;5016657;28;20034;-87
2023/06/01 11:13:34;;;;;;;7.95;3.80;;;22.80;65.30;;;;;;5017455;28;20030;-89
2023/06/01 11:18:41;;;;;;;5.63;3.05;;;22.80;64.60;;;;;;5016054;28;20034;-89
2023/06/01 11:21:21;;;;;;;8.85;3.65;;;22.90;63.60;;;;;;5014494;28;20379;-88
2023/06/01 11:23:47;;;;;;;9.93;3.33;;;22.90;63.00;;;;;;5016976;28;20030;-87
2023/06/01 11:26:19;;;;;;;8.32;3.83;;;22.70;63.30;;;;;;5014937;28;20060;-88
2023/06/01 11:28:48;;;;;;;7.50;3.88;;;22.50;64.20;;;;;;5016040;28;20026;-87
2023/06/01 11:31:19;;;;;;;5.03;3.00;;;22.30;63.60;;;;;;5015275;28;20057;-87
2023/06/01 11:33:53;;;;;;;7.90;3.70;;;22.10;65.10;;;;;;5013948;28;20041;-87
2023/06/01 11:36:23;;;;;;;10.75;3.40;;;22.10;64.30;;;;;;5015128;28;20113;-88
2023/06/01 11:38:50;;;;;;;4.63;2.50;;;22.00;64.70;;;;;;5015429;28;20478;-87
2023/06/01 11:41:16;;;;;;;9.40;3.45;;;22.00;64.60;;;;;;5015202;28;20057;-87
2023/06/01 11:43:42;;;;;;;7.00;2.38;;;22.30;65.30;;;;;;5014971;28;20096;-87
2023/06/01 11:46:09;;;;;;;6.55;2.75;;;22.70;64.30;;;;;;5014805;28;20065;-87
2023/06/01 11:48:35;;;;;;;6.43;2.95;;;22.90;63.90;;;;;;5013939;28;20429;-86
2023/06/01 11:51:04;;;;;;;5.28;2.50;;;23.10;63.20;;;;;;5014738;28;20060;-85
2023/06/01 11:53:32;;;;;;;7.70;3.40;;;23.30;62.00;;;;;;5014590;28;20466;-86
2023/06/01 11:55:58;;;;;;;4.38;2.55;;;23.40;62.00;;;;;;5014924;28;20025;-86
2023/06/01 11:58:26;;;;;;;6.05;2.88;;;23.50;61.70;;;;;;5013535;28;20189;-86
2023/06/01 12:00:53;;;;;;;6.57;3.60;;;23.80;61.50;;;;;;5014162;28;20038;-87
2023/06/01 12:03:19;;;;;;;9.30;3.58;;;23.90;59.10;;;;;;5014337;28;20550;-86
2023/06/01 12:05:46;;;;;;;6.65;3.17;;;23.50;59.90;;;;;;5014296;28;20072;-87
2023/06/01 12:08:17;;;;;;;8.25;2.97;;;23.50;60.00;;;;;;5015362;28;20052;-87
2023/06/01 12:10:45;;;;;;;5.85;2.78;;;23.70;59.60;;;;;;5014757;28;20168;-87
2023/06/01 12:13:11;;;;;;;9.05;3.03;;;23.80;59.40;;;;;;5014586;28;20030;-87
2023/06/01 12:15:37;;;;;;;9.05;3.65;;;23.90;59.70;;;;;;5014451;28;20064;-86
2023/06/01 12:18:03;;;;;;;8.45;2.92;;;23.60;60.10;;;;;;5014435;28;20105;-88
2023/06/01 12:20:37;;;;;;;8.00;2.95;;;23.60;60.80;;;;;;5014341;28;20463;-86
2023/06/01 12:23:23;;;;;;;6.57;2.95;;;23.70;58.80;;;;;;5014802;28;20037;-88
2023/06/01 12:25:53;;;;;;;8.88;2.60;;;23.70;58.80;;;;;;4995011;28;20152;-87
2023/06/01 12:28:20;;;;;;;5.30;2.47;;;23.90;58.80;;;;;;4994711;28;20116;-88
2023/06/01 12:30:47;;;;;;;6.07;2.58;;;24.20;59.10;;;;;;4994643;28;20041;-89
2023/06/01 12:33:35;;;;;;;6.45;2.60;;;24.40;57.40;;;;;;4994716;28;20033;-88
2023/06/01 12:36:03;;;;;;;5.05;2.10;;;24.30;57.70;;;;;;4993451;28;20065;-88
2023/06/01 12:38:34;;;;;;;6.22;2.20;;;24.40;58.70;;;;;;4994345;28;20494;-87
2023/06/01 12:41:11;;;;;;;7.07;2.22;;;24.50;57.70;;;;;;4994362;28;20030;-88
2023/06/01 12:43:44;;;;;;;8.68;2.90;;;24.60;59.20;;;;;;4994208;28;20054;-88
2023/06/01 12:46:27;;;;;;;6.75;2.38;;;24.40;57.30;;;;;;4978240;28;20050;-89
2023/06/01 12:49:17;;;;;;;4.20;1.98;;;24.20;58.70;;;;;;4994721;28;20054;-87
2023/06/01 12:51:43;;;;;;;9.88;2.90;;;24.20;59.10;;;;;;4994777;28;20022;-87
2023/06/01 12:54:09;;;;;;;9.00;2.40;;;24.40;58.50;;;;;;4994561;28;20088;-87
2023/06/01 12:56:34;;;;;;;6.97;2.50;;;24.30;57.60;;;;;;4993263;28;20117;-88
2023/06/01 12:59:00;;;;;;;6.95;2.90;;;24.00;58.90;;;;;;4994756;28;20042;-88
2023/06/01 13:01:27;;;;;;;4.60;2.03;;;23.70;59.30;;;;;;4993026;28;20041;-88
2023/06/01 13:03:53;;;;;;;5.20;2.08;;;23.70;60.40;;;;;;4994421;28;20118;-88
2023/06/01 13:06:19;;;;;;;7.55;2.00;;;23.80;61.00;;;;;;4994040;28;20485;-89
2023/06/01 13:08:45;;;;;;;9.30;2.67;;;24.00;60.30;;;;;;4993965;28;20031;-88
2023/06/01 13:11:11;;;;;;;4.47;2.20;;;24.20;59.00;;;;;;4994656;28;20053;-88
2023/06/01 13:13:36;;;;;;;7.88;2.53;;;24.30;59.60;;;;;;4993546;28;20039;-87
2023/06/01 13:16:02;;;;;;;6.43;2.63;;;24.50;59.90;;;;;;4994865;28;20045;-87
2023/06/01 13:18:28;;;;;;;5.05;2.25;;;24.60;58.40;;;;;;4980766;28;20034;-88
2023/06/01 13:20:56;;;;;;;6.13;1.90;;;24.50;58.80;;;;;;4998104;28;20479;-87
2023/06/01 13:23:22;;;;;;;3.55;1.75;;;24.60;59.20;;;;;;4981316;28;20023;-87
2023/06/01 13:25:48;;;;;;;4.53;1.95;;;24.70;59.00;;;;;;4999158;28;20053;-86
2023/06/01 13:28:15;;;;;;;6.97;2.40;;;24.80;59.00;;;;;;4997001;28;20043;-86
2023/06/01 13:30:42;;;;;;;4.28;2.05;;;24.70;59.00;;;;;;4998146;28;20027;-87
2023/06/01 13:33:08;;;;;;;4.18;1.30;;;24.50;59.80;;;;;;4998590;28;20034;-87
2023/06/01 13:35:34;;;;;;;6.80;2.35;;;24.50;60.10;;;;;;4997466;28;20391;-86
2023/06/01 13:38:00;;;;;;;6.07;1.85;;;24.50;60.50;;;;;;4997980;28;20053;-87
2023/06/01 13:40:26;;;;;;;2.88;1.40;;;24.40;61.50;;;;;;4999691;28;20114;-86
2023/06/01 13:42:52;;;;;;;4.28;2.05;;;24.40;61.00;;;;;;4998183;28;20537;-87
2023/06/01 13:45:20;;;;;;;9.30;1.90;;;24.40;61.00;;;;;;4999184;28;20065;-88
2023/06/01 13:47:46;;;;;;;4.15;1.73;;;24.30;62.50;;;;;;4981407;28;20472;-87
2023/06/01 13:50:12;;;;;;;5.90;2.28;;;24.40;62.30;;;;;;4999258;28;20054;-88
2023/06/01 13:52:39;;;;;;;6.05;2.22;;;24.60;61.50;;;;;;4998445;28;20042;-86
2023/06/01 13:55:06;;;;;;;3.90;1.90;;;24.60;61.90;;;;;;4999793;28;20368;-87
2023/06/01 13:57:32;;;;;;;4.80;2.10;;;24.20;61.80;;;;;;5000880;28;20069;-88
2023/06/01 13:59:58;;;;;;;6.80;3.05;;;23.90;62.90;;;;;;5004113;28;20034;-88
2023/06/01 14:02:24;;;;;;;5.05;2.30;;;23.80;62.50;;;;;;5002007;28;20491;-87
2023/06/01 14:04:49;;;;;;;4.20;2.28;;;23.60;63.80;;;;;;5001341;28;20046;-88
2023/06/01 14:07:15;;;;;;;5.25;2.50;;;23.60;63.00;;;;;;4999060;28;20034;-88
2023/06/01 14:09:40;;;;;;;4.38;2.30;;;23.30;63.60;;;;;;4999525;28;20053;-87
2023/06/01 14:12:07;;;;;;;5.82;2.05;;;23.20;64.80;;;;;;4999539;28;20569;-88
2023/06/01 14:14:32;;;;;;;6.68;2.55;;;23.10;64.20;;;;;;4983191;28;20410;-88
2023/06/01 14:16:58;;;;;;;5.03;2.22;;;23.00;64.70;;;;;;4999245;28;20049;-88
2023/06/01 14:19:26;;;;;;;6.32;2.35;;;22.80;64.50;;;;;;4999267;28;20118;-88
2023/06/01 14:21:52;;;;;;;8.43;2.08;;;22.60;64.50;;;;;;4999727;28;20034;-86
2023/06/01 14:24:18;;;;;;;6.40;2.38;;;22.50;64.80;;;;;;5002873;28;20034;-88
2023/06/01 14:26:44;;;;;;;8.38;2.60;;;22.30;65.00;;;;;;5001597;28;20372;-86
2023/06/01 14:29:10;;;;;;;6.78;2.17;;;22.30;65.60;;;;;;5001817;28;20026;-87
2023/06/01 14:31:36;;;;;;;6.60;2.45;;;22.20;65.90;;;;;;5001664;28;20041;-86
2023/06/01 14:34:02;;;;;;;7.95;2.50;;;22.30;65.00;;;;;;5003059;28;20039;-87
2023/06/01 14:36:27;;;;;;;9.73;2.65;;;22.30;65.90;;;;;;5002437;28;20137;-86
2023/06/01 14:38:53;;;;;;;6.03;2.25;;;22.30;64.80;;;;;;5003386;28;20042;-88
2023/06/01 14:41:19;;;;;;;10.68;2.85;;;22.40;65.10;;;;;;5001293;28;20080;-88
2023/06/01 14:43:45;;;;;;;6.90;2.75;;;22.30;64.80;;;;;;5001893;28;20056;-83
2023/06/01 14:46:11;;;;;;;6.13;2.72;;;22.20;65.50;;;;;;4999735;28;20035;-87
2023/06/01 14:48:36;;;;;;;9.75;2.50;;;22.30;64.90;;;;;;5000354;28;20035;-87
2023/06/01 14:51:02;;;;;;;5.47;1.85;;;22.10;65.10;;;;;;5002456;28;20034;-87
2023/06/01 14:53:28;;;;;;;9.00;1.90;;;22.20;65.40;;;;;;5001263;28;20467;-87
2023/06/01 14:55:54;;;;;;;8.07;2.17;;;22.40;65.10;;;;;;5003127;28;20045;-87
2023/06/01 14:58:19;;;;;;;6.55;2.03;;;22.50;64.80;;;;;;5000708;28;20030;-86
2023/06/01 15:00:45;;;;;;;4.78;2.00;;;22.60;64.50;;;;;;5000664;28;20031;-87
2023/06/01 15:03:11;;;;;;;5.50;2.00;;;22.50;64.70;;;;;;4998486;28;20029;-86
2023/06/01 15:05:37;;;;;;;3.80;1.50;;;22.40;64.50;;;;;;4997504;28;20046;-87
2023/06/01 15:08:07;;;;;;;5.38;1.60;;;22.30;64.00;;;;;;4994667;28;20059;-85
2023/06/01 15:10:32;;;;;;;5.63;2.08;;;22.30;64.60;;;;;;4996721;28;20027;-86
2023/06/01 15:12:58;;;;;;;6.93;2.05;;;22.10;65.00;;;;;;4997496;28;20030;-86
2023/06/01 15:15:24;;;;;;;5.43;1.77;;;21.90;64.90;;;;;;4997118;28;20034;-87
2023/06/01 15:17:50;;;;;;;5.65;1.73;;;21.80;65.00;;;;;;4997110;28;20031;-85
2023/06/01 15:20:15;;;;;;;3.80;1.65;;;22.00;65.10;;;;;;4996815;28;20380;-85
2023/06/01 15:22:41;;;;;;;7.15;2.50;;;22.10;64.70;;;;;;4996730;28;20112;-87
2023/06/01 15:25:07;;;;;;;4.38;1.83;;;22.10;64.90;;;;;;4995158;28;20424;-87
2023/06/01 15:27:33;;;;;;;8.57;2.50;;;22.10;65.20;;;;;;4996371;28;20026;-87
2023/06/01 15:29:58;;;;;;;5.50;2.80;;;21.90;64.70;;;;;;4996444;28;20471;-87
2023/06/01 15:32:24;;;;;;;5.63;2.05;;;21.30;65.20;;;;;;4995055;28;20038;-88
2023/06/01 15:34:50;;;;;;;6.38;2.00;;;21.00;66.50;;;;;;4997296;28;20088;-87
2023/06/01 15:37:15;;;;;;;5.43;1.67;;;20.80;67.20;;;;;;4995775;28;20085;-88
2023/06/01 15:39:41;;;;;;;3.95;1.85;;;20.80;67.50;;;;;;4996558;28;20061;-87
2023/06/01 15:42:09;;;;;;;9.38;2.90;;;21.00;67.20;;;;;;5024482;28;20084;-87
2023/06/01 15:44:44;;;;;;;9.68;2.33;;;21.00;66.70;;;;;;5035353;28;20535;-88
2023/06/01 15:47:11;;;;;;;4.93;1.80;;;21.00;66.60;;;;;;5033793;28;20367;-88
2023/06/01 15:49:39;;;;;;;7.47;1.88;;;21.00;66.50;;;;;;5034846;28;20029;-87
2023/06/01 15:52:05;;;;;;;4.80;2.15;;;20.90;66.70;;;;;;5035401;28;20026;-87
2023/06/01 15:54:32;;;;;;;5.30;1.77;;;20.90;67.00;;;;;;5035075;28;20059;-86
2023/06/01 15:56:58;;;;;;;3.97;1.50;;;20.70;66.80;;;;;;5035217;28;20025;-86
2023/06/01 15:59:24;;;;;;;6.10;1.60;;;20.40;67.50;;;;;;5035302;28;20052;-87
2023/06/01 16:01:50;;;;;;;4.15;1.33;;;20.30;68.00;;;;;;5033984;28;20466;-86
2023/06/01 16:04:16;;;;;;;4.80;1.35;;;20.20;68.20;;;;;;5033727;28;20381;-88
2023/06/01 16:06:42;;;;;;;4.75;1.05;;;20.30;68.50;;;;;;5035155;28;20025;-88
2023/06/01 16:09:08;;;;;;;4.65;1.30;;;20.40;68.40;;;;;;5035312;28;20033;-86
2023/06/01 16:11:34;;;;;;;3.20;1.50;;;20.60;68.20;;;;;;5035351;28;20048;-88
2023/06/01 16:14:00;;;;;;;2.63;1.10;;;20.50;67.90;;;;;;5033752;28;20026;-86
2023/06/01 16:16:26;;;;;;;4.03;1.17;;;20.20;68.30;;;;;;5035046;28;20037;-88
2023/06/01 16:18:51;;;;;;;3.65;1.17;;;20.30;68.50;;;;;;5034662;28;20057;-87
2023/06/01 16:21:17;;;;;;;3.80;1.15;;;20.40;68.00;;;;;;5035062;28;20072;-88
2023/06/01 16:23:43;;;;;;;3.38;1.30;;;20.50;67.20;;;;;;5050533;28;20458;-86
2023/06/01 16:26:09;;;;;;;4.28;1.38;;;20.60;67.10;;;;;;5034496;28;20045;-88
2023/06/01 16:28:35;;;;;;;5.70;1.55;;;20.60;67.10;;;;;;5049822;28;20378;-88
2023/06/01 16:31:01;;;;;;;2.95;1.10;;;20.70;66.80;;;;;;5034639;28;20033;-87
2023/06/01 16:33:27;;;;;;;3.40;1.27;;;20.70;66.70;;;;;;5034348;28;20053;-87
2023/06/01 16:35:53;;;;;;;4.65;1.25;;;20.80;66.50;;;;;;5034000;28;20500;-87
2023/06/01 16:38:19;;;;;;;5.32;1.50;;;20.80;66.50;;;;;;5032472;28;20055;-87
2023/06/01 16:40:44;;;;;;;3.97;1.40;;;20.80;66.50;;;;;;5032899;28;20032;-85
2023/06/01 16:43:12;;;;;;;5.80;1.65;;;20.90;66.40;;;;;;5036339;28;20522;-87
2023/06/01 16:45:39;;;;;;;4.05;1.52;;;20.90;66.50;;;;;;5034265;28;20033;-87
2023/06/01 16:48:06;;;;;;;5.35;1.30;;;20.90;66.60;;;;;;5048697;28;20514;-87
2023/06/01 16:50:32;;;;;;;3.67;1.50;;;20.70;66.30;;;;;;5048555;28;20493;-88
2023/06/01 16:52:58;;;;;;;5.13;1.58;;;20.70;66.50;;;;;;5033698;28;20030;-84
2023/06/01 16:55:24;;;;;;;3.88;1.35;;;20.60;66.60;;;;;;5049095;28;20034;-88
2023/06/01 16:57:49;;;;;;;3.58;1.40;;;20.40;67.00;;;;;;5034136;28;20446;-87
2023/06/01 17:00:16;;;;;;;6.15;1.40;;;20.20;67.30;;;;;;5034008;28;20386;-87
2023/06/01 17:02:42;;;;;;;4.88;1.45;;;19.80;67.90;;;;;;5032245;28;20029;-84
2023/06/01 17:05:09;;;;;;;4.55;1.27;;;19.80;68.20;;;;;;5033480;28;20053;-88
2023/06/01 17:07:34;;;;;;;3.75;1.10;;;19.70;68.60;;;;;;5033667;28;20029;-88
2023/06/01 17:10:00;;;;;;;2.78;0.90;;;19.80;68.40;;;;;;5033344;28;20029;-87
2023/06/01 17:12:26;;;;;;;2.47;0.70;;;19.80;68.20;;;;;;5032095;28;20029;-86
2023/06/01 17:14:52;;;;;;;6.18;1.10;;;19.80;68.10;;;;;;5032898;28;20037;-87
2023/06/01 17:17:19;;;;;;;3.58;1.15;;;19.90;67.90;;;;;;5049016;28;20025;-87
2023/06/01 17:19:45;;;;;;;3.80;0.95;;;19.80;68.20;;;;;;5032937;28;20099;-88
2023/06/01 17:22:10;;;;;;;3.72;1.33;;;19.90;68.20;;;;;;5033350;28;20030;-88
2023/06/01 17:24:36;;;;;;;3.03;0.90;;;19.90;68.10;;;;;;5033667;28;20563;-87
2023/06/01 17:27:03;;;;;;;4.55;1.20;;;20.00;67.80;;;;;;5050187;28;20033;-87
2023/06/01 17:29:28;;;;;;;6.15;1.40;;;20.00;67.60;;;;;;5033504;28;20048;-85
2023/06/01 17:31:54;;;;;;;3.80;1.08;;;19.80;67.60;;;;;;5033327;28;20021;-87
2023/06/01 17:34:19;;;;;;;5.57;1.48;;;19.80;68.10;;;;;;5032278;28;20466;-87
2023/06/01 17:36:45;;;;;;;5.22;1.15;;;19.60;67.90;;;;;;5048901;28;20033;-88
2023/06/01 17:39:11;;;;;;;5.18;1.55;;;19.50;68.30;;;;;;5032947;28;20389;-88
2023/06/01 17:41:42;;;;;;;5.57;1.23;;;19.40;68.30;;;;;;5033203;28;20430;-87
2023/06/01 17:44:11;;;;;;;5.07;1.02;;;19.30;68.40;;;;;;5033397;28;20057;-87